createdAt,value
2023-04-28T00:00:09.759Z,3.75
2023-04-28T00:02:55.150Z,3.72
2023-04-28T00:05:41.201Z,4.53
2023-04-28T00:08:27.266Z,3.33
2023-04-28T00:11:12.577Z,4.07
2023-04-28T00:13:57.841Z,3.80
2023-04-28T00:16:43.361Z,3.17
2023-04-28T00:19:29.073Z,3.20
2023-04-28T00:22:15.172Z,3.80
2023-04-28T00:25:00.563Z,3.33
2023-04-28T00:27:45.831Z,3.15
2023-04-28T00:30:31.612Z,3.50
2023-04-28T00:33:16.727Z,3.80
2023-04-28T00:36:02.093Z,3.80
2023-04-28T00:38:47.498Z,3.20
2023-04-28T00:41:34.776Z,3.35
2023-04-28T00:44:19.763Z,3.05
2023-04-28T00:47:05.623Z,3.53
2023-04-28T00:49:50.704Z,3.75
2023-04-28T00:52:38.250Z,3.25
2023-04-28T00:55:26.312Z,3.88
2023-04-28T00:58:11.304Z,3.35
2023-04-28T01:01:07.978Z,3.33
2023-04-28T01:03:53.689Z,3.55
2023-04-28T01:06:39.762Z,3.10
2023-04-28T01:09:25.327Z,3.38
2023-04-28T01:12:10.705Z,3.58
2023-04-28T01:14:56.194Z,3.90
2023-04-28T01:17:41.654Z,3.65
2023-04-28T01:20:26.776Z,3.88
2023-04-28T01:23:16.577Z,3.88
2023-04-28T01:26:01.866Z,3.22
2023-04-28T01:28:47.264Z,4.00
2023-04-28T01:31:32.527Z,3.42
2023-04-28T01:34:18.200Z,3.90
2023-04-28T01:37:03.894Z,3.67
2023-04-28T01:39:49.267Z,3.78
2023-04-28T01:42:34.725Z,3.55
2023-04-28T01:45:20.138Z,3.95
2023-04-28T01:48:05.750Z,4.18
2023-04-28T01:50:50.960Z,3.55
2023-04-28T01:53:36.240Z,3.78
2023-04-28T01:56:21.744Z,3.50
2023-04-28T01:59:07.238Z,5.40
2023-04-28T02:01:52.546Z,3.80
2023-04-28T02:04:39.025Z,3.60
2023-04-28T02:07:24.398Z,4.72
2023-04-28T02:10:10.153Z,3.55
2023-04-28T02:12:55.260Z,3.97
2023-04-28T02:15:44.222Z,3.10
2023-04-28T02:18:29.686Z,3.65
2023-04-28T02:21:14.961Z,3.53
2023-04-28T02:24:00.456Z,3.83
2023-04-28T02:26:45.896Z,3.20
2023-04-28T02:29:31.873Z,3.47
2023-04-28T02:32:17.083Z,3.08
2023-04-28T02:35:02.407Z,3.55
2023-04-28T02:37:47.964Z,3.55
2023-04-28T02:40:33.249Z,3.42
2023-04-28T02:43:19.381Z,3.50
2023-04-28T02:46:05.245Z,3.85
2023-04-28T02:48:50.472Z,2.97
2023-04-28T02:51:35.917Z,3.30
2023-04-28T02:54:27.581Z,3.10
2023-04-28T02:57:12.509Z,3.05
2023-04-28T02:59:57.874Z,3.50
2023-04-28T03:02:43.250Z,4.25
2023-04-28T03:05:28.560Z,3.40
2023-04-28T03:08:14.126Z,3.55
2023-04-28T03:10:59.479Z,3.05
2023-04-28T03:13:44.890Z,3.65
2023-04-28T03:16:30.319Z,3.92
2023-04-28T03:19:15.888Z,3.42
2023-04-28T03:22:01.440Z,3.95
2023-04-28T03:24:46.800Z,3.22
2023-04-28T03:27:32.215Z,3.20
2023-04-28T03:30:17.635Z,2.92
2023-04-28T03:33:02.993Z,3.00
2023-04-28T03:35:48.396Z,3.60
2023-04-28T03:38:33.735Z,3.13
2023-04-28T03:41:19.113Z,3.38
2023-04-28T03:44:05.592Z,3.33
2023-04-28T03:46:51.102Z,3.08
2023-04-28T03:49:36.514Z,3.00
2023-04-28T03:52:21.836Z,3.42
2023-04-28T03:55:07.464Z,5.90
2023-04-28T03:57:53.140Z,3.05
2023-04-28T04:00:38.262Z,3.40
2023-04-28T04:03:26.485Z,3.17
2023-04-28T04:06:12.561Z,3.58
2023-04-28T04:08:57.722Z,4.25
2023-04-28T04:11:43.133Z,3.13
2023-04-28T04:14:28.533Z,3.67
2023-04-28T04:17:14.011Z,4.63
2023-04-28T04:19:59.442Z,3.08
2023-04-28T04:22:44.797Z,3.03
2023-04-28T04:25:32.279Z,3.30
2023-04-28T04:28:17.503Z,3.05
2023-04-28T04:31:03.449Z,3.28
2023-04-28T04:33:48.806Z,3.00
2023-04-28T04:36:34.007Z,2.53
2023-04-28T04:39:19.293Z,3.35
2023-04-28T04:42:16.849Z,2.90
2023-04-28T04:45:09.428Z,2.55
2023-04-28T04:47:54.809Z,2.55
2023-04-28T04:50:41.084Z,2.67
2023-04-28T04:53:26.750Z,2.50
2023-04-28T04:56:12.225Z,2.55
2023-04-28T04:58:57.883Z,2.88
2023-04-28T05:01:43.417Z,2.83
2023-04-28T05:04:29.090Z,3.20
2023-04-28T05:07:14.644Z,3.47
2023-04-28T05:10:00.565Z,2.67
2023-04-28T05:12:48.335Z,2.60
2023-04-28T05:15:34.792Z,2.90
2023-04-28T05:18:20.144Z,2.75
2023-04-28T05:21:06.362Z,2.60
2023-04-28T05:23:52.453Z,2.47
2023-04-28T05:26:37.829Z,2.70
2023-04-28T05:29:23.282Z,2.55
2023-04-28T05:32:08.659Z,2.42
2023-04-28T05:34:53.898Z,3.15
2023-04-28T05:37:40.030Z,3.30
2023-04-28T05:40:26.334Z,3.50
2023-04-28T05:43:12.039Z,2.95
2023-04-28T05:45:57.341Z,3.00
2023-04-28T05:48:42.751Z,5.15
2023-04-28T05:51:28.408Z,17.08
2023-04-28T05:54:13.865Z,7.15
2023-04-28T05:57:01.317Z,3.65
2023-04-28T05:59:47.036Z,4.15
2023-04-28T06:02:32.632Z,3.67
2023-04-28T06:05:18.251Z,2.83
2023-04-28T06:08:03.790Z,2.78
2023-04-28T06:10:49.253Z,2.80
2023-04-28T06:13:34.600Z,3.45
2023-04-28T06:16:20.331Z,3.17
2023-04-28T06:19:05.967Z,3.30
2023-04-28T06:21:52.680Z,2.75
2023-04-28T06:24:38.069Z,2.60
2023-04-28T06:27:23.434Z,2.80
2023-04-28T06:30:09.243Z,2.83
2023-04-28T06:32:56.075Z,2.88
2023-04-28T06:35:41.478Z,2.53
2023-04-28T06:38:27.262Z,3.10
2023-04-28T06:41:12.443Z,3.10
2023-04-28T06:43:57.702Z,2.90
2023-04-28T06:46:43.205Z,3.47
2023-04-28T06:49:28.405Z,2.97
2023-04-28T06:52:14.671Z,2.65
2023-04-28T06:54:59.708Z,2.92
2023-04-28T06:57:45.143Z,3.33
2023-04-28T07:00:30.784Z,2.60
2023-04-28T07:03:16.055Z,3.33
2023-04-28T07:06:01.384Z,2.88
2023-04-28T07:08:46.877Z,2.55
2023-04-28T07:11:33.464Z,3.00
2023-04-28T07:14:18.954Z,2.80
2023-04-28T07:17:04.164Z,6.25
2023-04-28T07:19:50.912Z,3.50
2023-04-28T07:22:36.701Z,3.00
2023-04-28T07:25:22.129Z,3.58
2023-04-28T07:28:08.051Z,2.50
2023-04-28T07:30:53.055Z,2.78
2023-04-28T07:33:38.362Z,3.90
2023-04-28T07:36:23.727Z,2.97
2023-04-28T07:39:09.106Z,4.38
2023-04-28T07:41:54.574Z,4.53
2023-04-28T07:44:40.106Z,4.40
2023-04-28T07:47:25.504Z,3.30
2023-04-28T07:50:12.192Z,3.35
2023-04-28T07:52:59.055Z,3.08
2023-04-28T07:55:45.823Z,3.78
2023-04-28T07:58:31.594Z,3.78
2023-04-28T08:01:16.851Z,3.28
2023-04-28T08:04:02.505Z,3.63
2023-04-28T08:06:47.636Z,3.58
2023-04-28T08:09:33.153Z,3.38
2023-04-28T08:12:18.611Z,3.75
2023-04-28T08:15:04.509Z,3.50
2023-04-28T08:17:49.976Z,3.78
2023-04-28T08:20:35.288Z,4.20
2023-04-28T08:23:21.338Z,4.10
2023-04-28T08:26:06.657Z,4.05
2023-04-28T08:28:52.823Z,4.20
2023-04-28T08:31:38.586Z,3.67
2023-04-28T08:34:23.862Z,4.20
2023-04-28T08:37:09.184Z,6.10
2023-04-28T08:40:01.928Z,4.57
2023-04-28T08:42:47.424Z,4.60
2023-04-28T08:45:41.135Z,4.90
2023-04-28T08:48:27.935Z,9.82
2023-04-28T08:51:25.698Z,6.10
2023-04-28T08:54:25.590Z,6.22
2023-04-28T08:57:12.696Z,5.25
2023-04-28T08:59:59.030Z,4.93
2023-04-28T09:02:44.569Z,4.43
2023-04-28T09:05:30.646Z,5.28
2023-04-28T09:08:15.980Z,5.38
2023-04-28T09:11:09.247Z,5.13
2023-04-28T09:14:12.509Z,5.53
2023-04-28T09:16:57.759Z,5.10
2023-04-28T09:19:43.560Z,5.07
2023-04-28T09:22:29.472Z,5.75
2023-04-28T09:25:16.060Z,5.20
2023-04-28T09:28:21.983Z,5.03
2023-04-28T09:31:23.796Z,5.93
2023-04-28T09:34:09.217Z,5.35
2023-04-28T09:36:54.653Z,5.38
2023-04-28T09:39:40.007Z,5.53
2023-04-28T09:42:36.359Z,5.10
2023-04-28T09:45:21.477Z,6.32
2023-04-28T09:48:13.111Z,5.78
2023-04-28T09:50:59.607Z,5.75
2023-04-28T09:53:45.473Z,6.10
2023-04-28T09:56:32.258Z,5.65
2023-04-28T09:59:17.889Z,6.03
2023-04-28T10:02:17.310Z,5.85
2023-04-28T10:05:11.612Z,6.40
2023-04-28T10:08:00.172Z,6.40
2023-04-28T10:10:45.864Z,7.93
2023-04-28T10:13:32.575Z,5.80
2023-04-28T10:16:18.508Z,6.25
2023-04-28T10:19:05.274Z,6.10
2023-04-28T10:22:03.990Z,5.90
2023-04-28T10:25:11.827Z,5.88
2023-04-28T10:27:59.411Z,5.82
2023-04-28T10:31:13.728Z,7.05
2023-04-28T10:34:22.297Z,5.93
2023-04-28T10:37:07.676Z,5.70
2023-04-28T10:40:31.815Z,4.72
2023-04-28T10:43:26.492Z,4.78
2023-04-28T10:46:12.007Z,5.35
2023-04-28T10:48:57.596Z,6.72
2023-04-28T10:51:42.696Z,6.68
2023-04-28T10:54:28.310Z,6.35
2023-04-28T10:57:18.175Z,6.47
2023-04-28T11:00:40.003Z,5.68
2023-04-28T11:04:13.366Z,5.60
2023-04-28T11:07:14.522Z,5.70
2023-04-28T11:09:59.655Z,5.85
2023-04-28T11:13:24.419Z,6.15
2023-04-28T11:16:09.894Z,6.28
2023-04-28T11:19:03.856Z,5.82
2023-04-28T11:21:49.655Z,6.07
2023-04-28T11:24:34.947Z,6.72
2023-04-28T11:27:25.206Z,6.28
2023-04-28T11:30:31.232Z,6.60
2023-04-28T11:33:16.940Z,6.72
2023-04-28T11:36:02.257Z,7.35
2023-04-28T11:38:49.018Z,7.90
2023-04-28T11:41:36.125Z,7.38
2023-04-28T11:44:25.024Z,7.50
2023-04-28T11:47:10.339Z,7.70
2023-04-28T11:49:55.704Z,7.35
2023-04-28T11:52:53.270Z,7.72
2023-04-28T11:55:39.280Z,7.55
2023-04-28T11:58:25.298Z,8.27
2023-04-28T12:01:12.136Z,8.32
2023-04-28T12:03:57.564Z,7.93
2023-04-28T12:06:43.081Z,7.47
2023-04-28T12:09:28.234Z,8.07
2023-04-28T12:12:18.346Z,7.93
2023-04-28T12:15:08.146Z,7.32
2023-04-28T12:17:53.361Z,8.02
2023-04-28T12:20:39.489Z,7.50
2023-04-28T12:23:34.864Z,7.40
2023-04-28T12:26:26.552Z,6.70
2023-04-28T12:29:35.402Z,6.77
2023-04-28T12:32:37.130Z,5.63
2023-04-28T12:35:23.804Z,6.97
2023-04-28T12:38:11.762Z,6.63
2023-04-28T12:40:57.462Z,6.72
2023-04-28T12:43:44.542Z,6.22
2023-04-28T12:46:31.634Z,5.97
2023-04-28T12:49:17.325Z,5.97
2023-04-28T12:52:03.534Z,6.18
2023-04-28T12:54:49.328Z,6.00
2023-04-28T12:57:38.950Z,6.40
2023-04-28T13:00:25.163Z,7.00
2023-04-28T13:03:10.900Z,6.28
2023-04-28T13:05:56.303Z,5.80
2023-04-28T13:08:41.839Z,5.65
2023-04-28T13:11:28.045Z,5.68
2023-04-28T13:14:13.121Z,5.97
2023-04-28T13:16:58.846Z,5.55
2023-04-28T13:19:44.238Z,6.05
2023-04-28T13:22:29.789Z,6.00
2023-04-28T13:25:15.230Z,5.68
2023-04-28T13:28:00.750Z,5.55
2023-04-28T13:30:46.268Z,5.72
2023-04-28T13:33:31.531Z,6.72
2023-04-28T13:36:17.085Z,5.75
2023-04-28T13:39:02.739Z,5.15
2023-04-28T13:41:49.508Z,5.65
2023-04-28T13:44:35.024Z,5.32
2023-04-28T13:47:20.358Z,4.90
2023-04-28T13:50:06.185Z,5.50
2023-04-28T13:52:51.902Z,4.60
2023-04-28T13:55:37.660Z,5.22
2023-04-28T13:58:23.227Z,4.82
2023-04-28T14:01:09.025Z,5.03
2023-04-28T14:03:54.847Z,5.10
2023-04-28T14:06:39.995Z,5.32
2023-04-28T14:09:25.609Z,5.80
2023-04-28T14:12:11.155Z,5.20
2023-04-28T14:14:56.958Z,5.65
2023-04-28T14:17:43.343Z,5.70
2023-04-28T14:20:29.115Z,5.90
2023-04-28T14:23:15.439Z,5.80
2023-04-28T14:26:00.647Z,6.32
2023-04-28T14:28:45.992Z,7.53
2023-04-28T14:31:31.802Z,6.82
2023-04-28T14:34:17.082Z,8.07
2023-04-28T14:37:02.441Z,6.80
2023-04-28T14:39:48.638Z,6.63
2023-04-28T14:42:38.656Z,6.82
2023-04-28T14:45:23.898Z,6.82
2023-04-28T14:48:10.597Z,7.03
2023-04-28T14:50:56.058Z,7.50
2023-04-28T14:53:42.044Z,7.45
2023-04-28T14:56:27.578Z,7.43
2023-04-28T14:59:12.589Z,6.82
2023-04-28T15:01:58.678Z,7.32
2023-04-28T15:04:44.684Z,8.40
2023-04-28T15:07:31.576Z,7.13
2023-04-28T15:10:17.815Z,7.85
2023-04-28T15:13:02.937Z,13.32
2023-04-28T15:15:48.891Z,8.95
2023-04-28T15:18:34.259Z,8.52
2023-04-28T15:21:19.729Z,9.73
2023-04-28T15:24:05.183Z,8.77
2023-04-28T15:26:50.607Z,8.95
2023-04-28T15:29:36.159Z,8.57
2023-04-28T15:32:21.522Z,9.70
2023-04-28T15:35:07.306Z,9.23
2023-04-28T15:37:53.252Z,8.90
2023-04-28T15:40:40.498Z,9.18
2023-04-28T15:43:26.360Z,9.30
2023-04-28T15:46:14.486Z,6.97
2023-04-28T15:48:59.931Z,7.20
2023-04-28T15:51:45.695Z,8.50
2023-04-28T15:54:30.915Z,9.13
2023-04-28T15:57:15.973Z,6.97
2023-04-28T16:00:01.940Z,9.05
2023-04-28T16:02:47.154Z,10.93
2023-04-28T16:05:32.480Z,10.38
2023-04-28T16:08:19.379Z,9.63
2023-04-28T16:11:05.305Z,11.15
2023-04-28T16:13:51.335Z,10.60
2023-04-28T16:16:36.708Z,9.50
2023-04-28T16:19:22.244Z,9.77
2023-04-28T16:22:07.215Z,10.13
2023-04-28T16:24:53.696Z,9.35
2023-04-28T16:27:40.499Z,9.02
2023-04-28T16:30:26.277Z,9.68
2023-04-28T16:33:11.799Z,9.43
2023-04-28T16:35:58.254Z,9.38
2023-04-28T16:38:45.739Z,9.63
2023-04-28T16:41:31.619Z,9.95
2023-04-28T16:44:17.039Z,9.77
2023-04-28T16:47:02.717Z,10.85
2023-04-28T16:49:48.292Z,9.88
2023-04-28T16:52:34.290Z,9.88
2023-04-28T16:55:20.040Z,10.07
2023-04-28T16:58:06.315Z,9.48
2023-04-28T17:00:52.389Z,10.57
2023-04-28T17:03:41.902Z,9.15
2023-04-28T17:06:28.038Z,10.77
2023-04-28T17:09:13.441Z,10.40
2023-04-28T17:11:59.090Z,12.48
2023-04-28T17:14:44.130Z,10.73
2023-04-28T17:17:29.900Z,10.25
2023-04-28T17:20:20.275Z,9.52
2023-04-28T17:23:06.027Z,10.73
2023-04-28T17:25:51.206Z,15.13
2023-04-28T17:28:36.710Z,15.50
2023-04-28T17:31:22.840Z,16.15
2023-04-28T17:34:08.704Z,11.70
2023-04-28T17:36:55.173Z,13.13
2023-04-28T17:39:40.743Z,11.82
2023-04-28T17:42:27.964Z,12.38
2023-04-28T17:45:13.524Z,12.48
2023-04-28T17:48:00.747Z,12.18
2023-04-28T17:50:46.488Z,12.07
2023-04-28T17:53:31.873Z,12.98
2023-04-28T17:56:17.731Z,9.65
2023-04-28T17:59:03.831Z,11.05
2023-04-28T18:01:48.992Z,10.18
2023-04-28T18:04:34.616Z,10.88
2023-04-28T18:07:19.901Z,12.95
2023-04-28T18:10:05.673Z,9.90
2023-04-28T18:12:53.572Z,12.45
2023-04-28T18:15:38.798Z,11.57
2023-04-28T18:18:24.610Z,11.50
2023-04-28T18:21:11.032Z,10.32
2023-04-28T18:23:56.464Z,10.32
2023-04-28T18:26:42.170Z,9.63
2023-04-28T18:29:27.257Z,11.38
2023-04-28T18:32:14.565Z,11.18
2023-04-28T18:35:00.685Z,11.50
2023-04-28T18:37:46.276Z,11.82
2023-04-28T18:40:37.533Z,11.65
2023-04-28T18:43:23.637Z,11.05
2023-04-28T18:46:09.462Z,12.00
2023-04-28T18:48:54.992Z,13.07
2023-04-28T18:51:40.285Z,12.90
2023-04-28T18:54:26.724Z,14.60
2023-04-28T18:57:12.780Z,13.88
2023-04-28T18:59:59.430Z,12.38
2023-04-28T19:02:45.219Z,12.02
2023-04-28T19:05:30.920Z,12.48
2023-04-28T19:08:16.435Z,12.85
2023-04-28T19:11:02.032Z,15.02
2023-04-28T19:13:47.781Z,14.90
2023-04-28T19:16:33.609Z,12.27
2023-04-28T19:19:19.580Z,10.40
2023-04-28T19:22:05.603Z,12.25
2023-04-28T19:24:50.803Z,12.25
2023-04-28T19:27:38.916Z,13.32
2023-04-28T19:30:24.355Z,13.18
2023-04-28T19:33:09.774Z,13.23
2023-04-28T19:35:55.152Z,13.65
2023-04-28T19:38:40.533Z,12.13
2023-04-28T19:41:26.081Z,12.73
2023-04-28T19:44:11.326Z,10.30
2023-04-28T19:46:56.711Z,11.90
2023-04-28T19:49:42.135Z,11.70
2023-04-28T19:52:28.039Z,11.43
2023-04-28T19:55:18.168Z,10.32
2023-04-28T19:58:04.011Z,13.25
2023-04-28T20:00:49.347Z,12.23
2023-04-28T20:03:35.956Z,11.73
2023-04-28T20:06:21.475Z,11.00
2023-04-28T20:09:06.594Z,10.50
2023-04-28T20:11:52.046Z,10.60
2023-04-28T20:14:37.546Z,11.45
2023-04-28T20:17:22.745Z,11.07
2023-04-28T20:20:08.507Z,12.10
2023-04-28T20:22:53.987Z,12.60
2023-04-28T20:25:39.644Z,12.63
2023-04-28T20:28:24.865Z,12.02
2023-04-28T20:31:10.631Z,11.75
2023-04-28T20:33:56.182Z,11.75
2023-04-28T20:36:42.825Z,12.52
2023-04-28T20:39:28.458Z,11.80
2023-04-28T20:42:13.943Z,12.25
2023-04-28T20:44:59.888Z,16.58
2023-04-28T20:47:45.433Z,8.45
2023-04-28T20:50:33.314Z,12.15
2023-04-28T20:53:18.776Z,14.55
2023-04-28T20:56:04.284Z,13.38
2023-04-28T20:58:49.750Z,12.98
2023-04-28T21:01:35.342Z,14.90
2023-04-28T21:04:21.169Z,15.35
2023-04-28T21:07:06.654Z,14.50
2023-04-28T21:09:52.348Z,14.77
2023-04-28T21:12:38.309Z,12.55
2023-04-28T21:15:24.302Z,15.25
2023-04-28T21:18:09.783Z,17.42
2023-04-28T21:20:56.632Z,17.23
2023-04-28T21:23:42.685Z,16.25
2023-04-28T21:26:27.851Z,13.27
2023-04-28T21:29:13.766Z,14.45
2023-04-28T21:31:58.958Z,14.30
2023-04-28T21:34:48.858Z,15.00
2023-04-28T21:37:34.366Z,16.73
2023-04-28T21:40:19.761Z,14.02
2023-04-28T21:43:05.966Z,16.13
2023-04-28T21:45:52.181Z,15.30
2023-04-28T21:48:38.560Z,16.55
2023-04-28T21:51:24.073Z,16.75
2023-04-28T21:54:09.595Z,17.50
2023-04-28T21:56:54.920Z,17.70
2023-04-28T21:59:40.303Z,14.30
2023-04-28T22:02:25.982Z,15.90
2023-04-28T22:05:11.754Z,17.45
2023-04-28T22:07:57.789Z,17.75
2023-04-28T22:10:45.702Z,17.58
2023-04-28T22:13:30.840Z,16.40
2023-04-28T22:16:16.496Z,17.48
2023-04-28T22:19:02.363Z,17.98
2023-04-28T22:21:48.105Z,17.98
2023-04-28T22:24:33.431Z,17.50
2023-04-28T22:27:18.665Z,17.38
2023-04-28T22:30:04.943Z,18.48
2023-04-28T22:32:50.558Z,17.65
2023-04-28T22:35:36.850Z,18.60
2023-04-28T22:38:22.087Z,17.70
2023-04-28T22:41:07.679Z,18.23
2023-04-28T22:43:53.361Z,18.52
2023-04-28T22:46:38.608Z,18.85
2023-04-28T22:49:28.378Z,18.83
2023-04-28T22:52:13.684Z,18.38
2023-04-28T22:54:59.426Z,17.65
2023-04-28T22:57:44.976Z,17.83
2023-04-28T23:00:30.138Z,18.77
2023-04-28T23:03:16.151Z,16.33
2023-04-28T23:06:01.470Z,16.92
2023-04-28T23:08:46.853Z,16.83
2023-04-28T23:11:32.107Z,16.23
2023-04-28T23:14:17.482Z,15.88
2023-04-28T23:17:02.952Z,14.10
2023-04-28T23:19:48.465Z,15.25
2023-04-28T23:22:33.810Z,15.68
2023-04-28T23:25:19.627Z,16.33
2023-04-28T23:28:05.196Z,16.20
2023-04-28T23:30:50.369Z,16.77
2023-04-28T23:33:35.560Z,17.10
2023-04-28T23:36:20.928Z,15.82
2023-04-28T23:39:06.393Z,16.38
2023-04-28T23:41:51.749Z,14.57
2023-04-28T23:44:37.113Z,15.75
2023-04-28T23:47:22.597Z,16.75
2023-04-28T23:50:09.656Z,15.18
2023-04-28T23:52:55.066Z,15.65
2023-04-28T23:55:40.388Z,14.20
2023-04-28T23:58:26.391Z,16.10
